Time;durP1;ratioP1;P1;durP2;ratioP2;P2;SDS_P1;SDS_P2;PMS_P1;PMS_P2;Temp;Humidity;BMP_temperature;BMP_pressure;BME280_temperature;BME280_humidity;BME280_pressure;Samples;Min_cycle;Max_cycle;Signal;HPM_P1;HPM_P2
2023/06/30 00:01:13;;;;;;;;;;;;;;;15.36;97.42;101491.78;5112395;27;19911;-49
2023/06/30 00:03:38;;;;;;;;;;;;;;;15.28;96.93;101502.84;5105661;28;19919;-46
2023/06/30 00:06:03;;;;;;;;;;;;;;;15.26;98.55;101503.69;5099930;28;20022;-48
2023/06/30 00:08:28;;;;;;;;;;;;;;;15.19;98.85;101494.91;5124348;27;20370;-47
2023/06/30 00:10:54;;;;;;;;;;;;;;;15.14;99.93;101496.53;5118086;27;20044;-47
2023/06/30 00:13:19;;;;;;;;;;;;;;;15.10;99.82;101488.69;5118044;27;20355;-44
2023/06/30 00:15:44;;;;;;;;;;;;;;;15.06;99.68;101492.06;5102703;28;20340;-44
2023/06/30 00:18:09;;;;;;;;;;;;;;;15.01;100.00;101486.78;5103962;28;19916;-47
2023/06/30 00:20:35;;;;;;;;;;;;;;;14.96;100.00;101497.06;5125007;27;19980;-60
2023/06/30 00:23:00;;;;;;;;;;;;;;;14.93;100.00;101490.97;5114046;27;19916;-61
2023/06/30 00:25:25;;;;;;;;;;;;;;;14.90;100.00;101485.69;5111517;28;19923;-60
2023/06/30 00:27:51;;;;;;;;;;;;;;;14.87;100.00;101493.41;5090838;28;20021;-60
2023/06/30 00:30:16;;;;;;;;;;;;;;;14.83;100.00;101495.06;5092008;28;19920;-60
2023/06/30 00:32:41;;;;;;;;;;;;;;;14.80;100.00;101491.53;5100290;28;19943;-61
2023/06/30 00:35:07;;;;;;;;;;;;;;;14.77;100.00;101489.75;5103282;28;20472;-59
2023/06/30 00:37:32;;;;;;;;;;;;;;;14.74;100.00;101497.44;5107053;28;19916;-60
2023/06/30 00:39:57;;;;;;;;;;;;;;;14.69;100.00;101488.72;5096490;28;19916;-61
2023/06/30 00:42:23;;;;;;;;;;;;;;;14.63;100.00;101486.88;5084450;28;19924;-61
2023/06/30 00:44:48;;;;;;;;;;;;;;;14.61;100.00;101487.69;5094373;28;20429;-61
2023/06/30 00:47:14;;;;;;;;;;;;;;;14.60;100.00;101488.53;5086679;28;19920;-60
2023/06/30 00:49:39;;;;;;;;;;;;;;;14.55;100.00;101487.53;5104397;28;19922;-61
2023/06/30 00:52:04;;;;;;;;;;;;;;;14.53;100.00;101489.22;5087571;28;20730;-59
2023/06/30 00:54:30;;;;;;;;;;;;;;;14.46;100.00;101491.69;5086843;28;19916;-60
2023/06/30 00:56:58;;;;;;;;;;;;;;;14.42;100.00;101483.78;5075415;28;19927;-60
2023/06/30 00:59:23;;;;;;;;;;;;;;;14.35;100.00;101482.78;5097141;28;19920;-60
2023/06/30 01:02:10;;;;;;;;;;;;;;;14.31;100.00;101491.28;5100851;28;21387;-60
2023/06/30 01:04:42;;;;;;;;;;;;;;;14.26;100.00;101490.34;5094790;28;19912;-61
2023/06/30 01:07:25;;;;;;;;;;;;;;;14.20;100.00;101492.78;5098787;28;19924;-60
2023/06/30 01:09:58;;;;;;;;;;;;;;;14.15;100.00;101489.22;5094779;28;19923;-59
2023/06/30 01:12:24;;;;;;;;;;;;;;;14.11;100.00;101493.44;5096693;28;19919;-61
2023/06/30 01:14:51;;;;;;;;;;;;;;;14.06;100.00;101484.69;5073789;28;19985;-59
2023/06/30 01:17:17;;;;;;;;;;;;;;;14.03;100.00;101494.09;5100139;28;19918;-60
2023/06/30 01:19:44;;;;;;;;;;;;;;;13.98;100.00;101490.53;5091655;28;19918;-47
2023/06/30 01:22:30;;;;;;;;;;;;;;;13.94;100.00;101487.84;5088738;28;19912;-47
2023/06/30 01:24:58;;;;;;;;;;;;;;;13.90;100.00;101488.63;5078411;28;19973;-46
2023/06/30 01:27:23;;;;;;;;;;;;;;;13.88;100.00;101495.44;5104551;27;19927;-47
2023/06/30 01:29:50;;;;;;;;;;;;;;;13.85;100.00;101494.53;5095682;28;19912;-46
2023/06/30 01:32:16;;;;;;;;;;;;;;;13.82;100.00;101490.13;5109313;27;20702;-46
2023/06/30 01:34:42;;;;;;;;;;;;;;;13.80;100.00;101497.00;5114769;27;19916;-46
2023/06/30 01:37:07;;;;;;;;;;;;;;;13.77;100.00;101496.94;5108860;27;20289;-45
2023/06/30 01:39:32;;;;;;;;;;;;;;;13.75;100.00;101498.56;5080722;28;19920;-49
2023/06/30 01:41:57;;;;;;;;;;;;;;;13.70;100.00;101492.41;5112675;27;20460;-45
2023/06/30 01:44:23;;;;;;;;;;;;;;;13.69;100.00;101495.84;5111060;28;19916;-45
2023/06/30 01:46:48;;;;;;;;;;;;;;;13.65;100.00;101492.31;5110664;28;20006;-46
2023/06/30 01:49:13;;;;;;;;;;;;;;;13.61;100.00;101485.31;5110321;28;19978;-46
2023/06/30 01:51:39;;;;;;;;;;;;;;;13.57;100.00;101478.31;5110830;28;19916;-47
2023/06/30 01:54:04;;;;;;;;;;;;;;;13.54;100.00;101485.13;5096843;28;20002;-47
2023/06/30 01:56:29;;;;;;;;;;;;;;;13.51;100.00;101483.31;5103288;27;20381;-49
2023/06/30 01:58:55;;;;;;;;;;;;;;;13.46;100.00;101484.03;5101959;28;19927;-60
2023/06/30 02:01:20;;;;;;;;;;;;;;;13.42;100.00;101480.50;5112057;27;19919;-61
2023/06/30 02:03:47;;;;;;;;;;;;;;;13.38;100.00;101476.97;5110879;28;20324;-60
2023/06/30 02:06:12;;;;;;;;;;;;;;;13.35;100.00;101476.91;5103093;28;19924;-60
2023/06/30 02:08:38;;;;;;;;;;;;;;;13.32;100.00;101481.97;5109938;27;19927;-60
2023/06/30 02:11:03;;;;;;;;;;;;;;;13.26;100.00;101483.50;5095352;28;19944;-61
2023/06/30 02:13:28;;;;;;;;;;;;;;;13.23;100.00;101481.72;5112228;27;19926;-60
2023/06/30 02:15:54;;;;;;;;;;;;;;;13.18;100.00;101477.25;5103575;27;19915;-60
2023/06/30 02:18:22;;;;;;;;;;;;;;;13.13;100.00;101472.81;5108088;27;20290;-60
2023/06/30 02:20:47;;;;;;;;;;;;;;;13.11;100.00;101476.19;5104128;28;19922;-59
2023/06/30 02:23:12;;;;;;;;;;;;;;;13.08;100.00;101473.53;5104468;28;19916;-60
2023/06/30 02:25:37;;;;;;;;;;;;;;;13.05;100.00;101476.03;5101149;28;20386;-60
2023/06/30 02:28:03;;;;;;;;;;;;;;;13.01;100.00;101475.06;5105374;27;19930;-60
2023/06/30 02:30:28;;;;;;;;;;;;;;;12.99;100.00;101481.91;5120422;27;19919;-60
2023/06/30 02:32:53;;;;;;;;;;;;;;;12.96;100.00;101479.22;5111936;27;19919;-61
2023/06/30 02:35:19;;;;;;;;;;;;;;;12.94;100.00;101478.31;5109957;28;19916;-60
2023/06/30 02:37:44;;;;;;;;;;;;;;;12.91;100.00;101485.06;5110364;28;20370;-61
2023/06/30 02:40:09;;;;;;;;;;;;;;;12.88;100.00;101486.75;5109550;28;19915;-61
2023/06/30 02:42:34;;;;;;;;;;;;;;;12.84;100.00;101492.66;5103351;28;19924;-60
2023/06/30 02:45:00;;;;;;;;;;;;;;;12.80;100.00;101496.00;5099161;28;19962;-60
2023/06/30 02:47:25;;;;;;;;;;;;;;;12.78;100.00;101497.63;5099194;27;19975;-60
2023/06/30 02:49:50;;;;;;;;;;;;;;;12.74;100.00;101500.06;5102683;28;20389;-60
2023/06/30 02:52:15;;;;;;;;;;;;;;;12.70;100.00;101501.69;5104458;28;20022;-60
2023/06/30 02:54:41;;;;;;;;;;;;;;;12.68;100.00;101512.78;5091434;28;20282;-60
2023/06/30 02:57:06;;;;;;;;;;;;;;;12.64;100.00;101508.38;5094895;28;20707;-60
2023/06/30 02:59:31;;;;;;;;;;;;;;;12.59;100.00;101508.25;5103305;28;20293;-61
2023/06/30 03:01:58;;;;;;;;;;;;;;;12.56;100.00;101506.47;5111006;28;20035;-60
2023/06/30 03:04:23;;;;;;;;;;;;;;;12.54;100.00;101510.69;5115994;28;19911;-60
2023/06/30 03:06:49;;;;;;;;;;;;;;;12.51;100.00;101508.03;5116042;28;19981;-61
2023/06/30 03:09:14;;;;;;;;;;;;;;;12.49;100.00;101512.25;5114984;28;19922;-60
2023/06/30 03:11:39;;;;;;;;;;;;;;;12.47;100.00;101500.13;5104938;28;19948;-60
2023/06/30 03:14:04;;;;;;;;;;;;;;;12.45;100.00;101514.69;5111920;28;19923;-60
2023/06/30 03:16:31;;;;;;;;;;;;;;;12.42;100.00;101506.84;5106954;28;20481;-61
2023/06/30 03:18:58;;;;;;;;;;;;;;;12.38;100.00;101505.91;5093422;28;20016;-60
2023/06/30 03:21:23;;;;;;;;;;;;;;;12.35;100.00;101500.63;5103700;28;19916;-61
2023/06/30 03:23:49;;;;;;;;;;;;;;;12.32;100.00;101492.81;5105354;28;19969;-61
2023/06/30 03:26:14;;;;;;;;;;;;;;;12.28;100.00;101496.13;5101983;28;19927;-60
2023/06/30 03:28:39;;;;;;;;;;;;;;;12.24;100.00;101502.88;5096733;28;19974;-60
2023/06/30 03:31:04;;;;;;;;;;;;;;;12.20;100.00;101505.31;5099419;28;19965;-62
2023/06/30 03:33:30;;;;;;;;;;;;;;;12.16;100.00;101503.47;5106037;28;19920;-61
2023/06/30 03:35:55;;;;;;;;;;;;;;;12.13;100.00;101498.19;5103813;28;19947;-61
2023/06/30 03:38:20;;;;;;;;;;;;;;;12.12;100.00;101496.44;5101719;28;19920;-61
2023/06/30 03:40:45;;;;;;;;;;;;;;;12.10;100.00;101496.41;5097998;28;19923;-60
2023/06/30 03:43:11;;;;;;;;;;;;;;;12.09;100.00;101499.81;5094050;28;20534;-61
2023/06/30 03:45:38;;;;;;;;;;;;;;;12.07;100.00;101493.72;5093379;28;19947;-60
2023/06/30 03:48:03;;;;;;;;;;;;;;;12.05;100.00;101491.09;5098478;28;19927;-61
2023/06/30 03:50:28;;;;;;;;;;;;;;;12.04;100.00;101486.78;5100224;28;19912;-60
2023/06/30 03:52:53;;;;;;;;;;;;;;;12.03;100.00;101489.31;5098194;28;19916;-61
2023/06/30 03:55:19;;;;;;;;;;;;;;;12.03;100.00;101486.75;5097116;28;19947;-61
2023/06/30 03:57:44;;;;;;;;;;;;;;;12.00;100.00;101487.50;5096850;28;19920;-61
2023/06/30 04:00:12;;;;;;;;;;;;;;;12.00;100.00;101494.34;5098539;28;19916;-60
2023/06/30 04:02:39;;;;;;;;;;;;;;;12.01;100.00;101489.28;5095681;28;20010;-61
2023/06/30 04:05:04;;;;;;;;;;;;;;;12.02;100.00;101491.03;5103236;28;20428;-62
2023/06/30 04:07:29;;;;;;;;;;;;;;;12.03;100.00;101490.19;5094269;28;20373;-61
2023/06/30 04:09:55;;;;;;;;;;;;;;;12.03;100.00;101491.91;5094950;28;19920;-60
2023/06/30 04:12:20;;;;;;;;;;;;;;;12.04;100.00;101488.47;5091741;28;19924;-60
2023/06/30 04:14:46;;;;;;;;;;;;;;;12.04;100.00;101491.06;5095203;28;19932;-61
2023/06/30 04:17:11;;;;;;;;;;;;;;;12.06;100.00;101489.41;5093927;28;20298;-60
2023/06/30 04:19:36;;;;;;;;;;;;;;;12.08;100.00;101487.75;5098883;28;19916;-61
2023/06/30 04:22:02;;;;;;;;;;;;;;;12.11;100.00;101493.00;5103190;28;19926;-61
2023/06/30 04:24:27;;;;;;;;;;;;;;;12.22;100.00;101493.34;5099568;28;19915;-61
2023/06/30 04:26:52;;;;;;;;;;;;;;;12.61;100.00;101491.97;5072267;28;19925;-61
2023/06/30 04:29:17;;;;;;;;;;;;;;;13.11;100.00;101489.97;5091292;28;19969;-61
2023/06/30 04:31:42;;;;;;;;;;;;;;;13.62;100.00;101486.19;5084634;28;19960;-61
2023/06/30 04:34:08;;;;;;;;;;;;;;;14.16;100.00;101491.84;5090003;28;19931;-61
2023/06/30 04:36:33;;;;;;;;;;;;;;;14.59;100.00;101492.81;5075169;28;19917;-61
2023/06/30 04:38:58;;;;;;;;;;;;;;;15.02;100.00;101484.22;5092549;28;19920;-60
2023/06/30 04:41:23;;;;;;;;;;;;;;;15.49;100.00;101483.38;5103521;28;20354;-61
2023/06/30 04:43:49;;;;;;;;;;;;;;;15.96;98.63;101484.22;5064918;28;19917;-61
2023/06/30 04:46:14;;;;;;;;;;;;;;;16.45;94.88;101490.13;5089549;28;19927;-61
2023/06/30 04:48:39;;;;;;;;;;;;;;;16.91;93.92;101479.47;5074183;28;19920;-60
2023/06/30 04:51:05;;;;;;;;;;;;;;;17.39;91.30;101485.22;5102627;28;19923;-61
2023/06/30 04:53:30;;;;;;;;;;;;;;;17.77;88.49;101491.66;5094857;28;19954;-61
2023/06/30 04:55:55;;;;;;;;;;;;;;;18.03;88.32;101489.28;5084484;28;19924;-61
2023/06/30 04:58:21;;;;;;;;;;;;;;;18.40;85.65;101491.25;5079746;28;19923;-61
2023/06/30 05:00:46;;;;;;;;;;;;;;;18.77;85.27;101495.81;5091386;28;19958;-61
2023/06/30 05:03:12;;;;;;;;;;;;;;;19.09;82.31;101493.34;5084047;28;20014;-61
2023/06/30 05:05:37;;;;;;;;;;;;;;;19.36;78.82;101496.03;5096662;28;20286;-61
2023/06/30 05:08:02;;;;;;;;;;;;;;;19.60;80.18;101492.63;5088653;28;19916;-60
2023/06/30 05:10:28;;;;;;;;;;;;;;;19.79;77.58;101483.06;5090958;28;19919;-61
2023/06/30 05:12:53;;;;;;;;;;;;;;;19.99;81.07;101483.91;5074562;28;19927;-60
2023/06/30 05:15:18;;;;;;;;;;;;;;;20.12;76.77;101481.28;5088542;28;19920;-61
2023/06/30 05:17:43;;;;;;;;;;;;;;;20.26;77.15;101484.72;5078964;28;19961;-61
2023/06/30 05:20:09;;;;;;;;;;;;;;;20.32;75.78;101485.59;5082012;28;19943;-60
2023/06/30 05:22:34;;;;;;;;;;;;;;;20.48;73.74;101480.34;5099974;28;19916;-60
2023/06/30 05:25:00;;;;;;;;;;;;;;;20.68;76.27;101486.38;5082451;28;19969;-60
2023/06/30 05:27:25;;;;;;;;;;;;;;;20.83;75.97;101491.56;5098753;28;19923;-59
2023/06/30 05:29:51;;;;;;;;;;;;;;;20.79;75.94;101486.34;5093066;28;19978;-60
2023/06/30 05:32:16;;;;;;;;;;;;;;;20.40;73.94;101496.03;5086895;28;19920;-60
2023/06/30 05:34:42;;;;;;;;;;;;;;;20.32;74.53;101496.06;5089133;28;20000;-61
2023/06/30 05:37:07;;;;;;;;;;;;;;;20.34;68.70;101489.06;5106039;28;19948;-60
2023/06/30 05:39:33;;;;;;;;;;;;;;;20.41;67.94;101496.91;5099654;28;19924;-60
2023/06/30 05:41:58;;;;;;;;;;;;;;;20.44;71.39;101486.44;5071549;28;19924;-60
2023/06/30 05:44:23;;;;;;;;;;;;;;;20.37;67.91;101498.63;5086001;28;19917;-60
2023/06/30 05:46:48;;;;;;;;;;;;;;;20.35;67.33;101490.81;5070099;28;20382;-60
2023/06/30 05:49:14;;;;;;;;;;;;;;;20.18;65.22;101497.81;5094260;28;19959;-60
2023/06/30 05:51:39;;;;;;;;;;;;;;;20.08;69.56;101498.66;5098646;28;19916;-60
2023/06/30 05:54:04;;;;;;;;;;;;;;;20.19;72.64;101499.53;5089118;28;19931;-60
2023/06/30 05:56:30;;;;;;;;;;;;;;;20.29;71.60;101497.78;5082032;28;19981;-58
2023/06/30 05:58:55;;;;;;;;;;;;;;;20.44;72.21;101496.88;5083160;28;19922;-60
2023/06/30 06:01:21;;;;;;;;;;;;;;;20.71;70.52;101493.34;5091301;28;19916;-59
2023/06/30 06:03:46;;;;;;;;;;;;;;;20.96;70.60;101489.75;5088339;28;20346;-61
2023/06/30 06:06:12;;;;;;;;;;;;;;;21.06;67.48;101496.69;5100745;28;19962;-60
2023/06/30 06:08:46;;;;;;;;;;;;;;;20.95;65.64;101495.00;5089417;28;19920;-60
2023/06/30 06:11:12;;;;;;;;;;;;;;;20.97;70.60;101495.84;5086851;28;19916;-60
2023/06/30 06:13:37;;;;;;;;;;;;;;;21.08;71.35;101488.81;5079370;28;19957;-59
2023/06/30 06:16:03;;;;;;;;;;;;;;;21.15;66.90;101486.16;5078261;28;20010;-59
2023/06/30 06:18:29;;;;;;;;;;;;;;;21.19;69.70;101488.78;5086647;28;19912;-61
2023/06/30 06:20:55;;;;;;;;;;;;;;;21.38;64.69;101491.28;5084903;28;20007;-60
2023/06/30 06:23:20;;;;;;;;;;;;;;;21.52;66.16;101495.56;5060861;28;20700;-58
2023/06/30 06:25:45;;;;;;;;;;;;;;;21.50;58.70;101502.56;5081486;28;19920;-60
2023/06/30 06:28:10;;;;;;;;;;;;;;;21.58;66.46;101499.00;5078523;28;20406;-59
2023/06/30 06:30:36;;;;;;;;;;;;;;;21.80;66.40;101488.38;5095032;28;19915;-60
2023/06/30 06:33:01;;;;;;;;;;;;;;;22.01;61.29;101495.16;5088998;28;19989;-58
2023/06/30 06:35:26;;;;;;;;;;;;;;;22.05;61.65;101491.63;5090014;28;19916;-58
2023/06/30 06:37:51;;;;;;;;;;;;;;;22.11;64.48;101494.22;5103276;28;19926;-59
2023/06/30 06:40:17;;;;;;;;;;;;;;;22.15;61.93;101496.81;5083984;28;19916;-59
2023/06/30 06:42:42;;;;;;;;;;;;;;;22.14;60.40;101502.91;5093644;28;20444;-59
2023/06/30 06:45:07;;;;;;;;;;;;;;;22.09;60.66;101496.88;5084429;28;19922;-58
2023/06/30 06:47:51;;;;;;;;;;;;;;;21.98;55.40;101505.69;5107784;28;20443;-59
2023/06/30 06:50:16;;;;;;;;;;;;;;;21.95;61.49;101496.94;5100929;28;19916;-59
2023/06/30 06:52:42;;;;;;;;;;;;;;;22.11;58.64;101496.84;5094027;28;19916;-59
2023/06/30 06:55:07;;;;;;;;;;;;;;;22.20;57.59;101495.03;5089264;28;19928;-59
2023/06/30 06:57:32;;;;;;;;;;;;;;;22.29;52.34;101491.44;5094023;28;19916;-58
2023/06/30 06:59:59;;;;;;;;;;;;;;;22.35;53.90;101499.22;5090862;28;19920;-59
2023/06/30 07:02:24;;;;;;;;;;;;;;;22.14;53.44;101496.81;5093532;28;19961;-58
2023/06/30 07:04:49;;;;;;;;;;;;;;;21.91;52.45;101503.09;5092263;28;19920;-59
2023/06/30 07:07:14;;;;;;;;;;;;;;;21.72;52.27;101496.28;5103530;28;19920;-59
2023/06/30 07:09:40;;;;;;;;;;;;;;;21.74;52.24;101497.16;5092679;28;19916;-59
2023/06/30 07:12:05;;;;;;;;;;;;;;;21.77;55.23;101504.09;5101090;28;20157;-59
2023/06/30 07:14:30;;;;;;;;;;;;;;;21.81;53.00;101498.81;5093983;28;19950;-58
2023/06/30 07:16:55;;;;;;;;;;;;;;;21.87;52.23;101498.78;5104769;28;19927;-58
2023/06/30 07:19:21;;;;;;;;;;;;;;;21.95;55.09;101496.94;5102033;28;19962;-60
2023/06/30 07:21:46;;;;;;;;;;;;;;;22.02;52.28;101499.50;5102234;28;19923;-59
2023/06/30 07:24:11;;;;;;;;;;;;;;;22.14;54.13;101494.19;5095168;28;19916;-59
2023/06/30 07:26:36;;;;;;;;;;;;;;;22.40;50.10;101500.06;5095106;28;19924;-59
2023/06/30 07:29:01;;;;;;;;;;;;;;;22.54;49.82;101507.75;5089114;28;19928;-57
2023/06/30 07:31:30;;;;;;;;;;;;;;;22.54;52.49;101502.50;5088746;28;19916;-59
2023/06/30 07:33:55;;;;;;;;;;;;;;;22.54;51.73;101499.88;5084030;28;19952;-59
2023/06/30 07:36:21;;;;;;;;;;;;;;;22.55;49.59;101506.84;5085790;28;20420;-59
2023/06/30 07:38:46;;;;;;;;;;;;;;;22.45;47.39;101513.97;5064131;28;19920;-59
2023/06/30 07:41:11;;;;;;;;;;;;;;;22.39;49.22;101511.41;5088485;28;20279;-59
2023/06/30 07:43:37;;;;;;;;;;;;;;;22.45;51.82;101503.50;5092322;28;19929;-59
2023/06/30 07:46:02;;;;;;;;;;;;;;;22.64;49.48;101506.78;5073941;28;19977;-57
2023/06/30 07:48:27;;;;;;;;;;;;;;;22.76;51.49;101508.38;5074858;28;19932;-58
2023/06/30 07:50:53;;;;;;;;;;;;;;;22.78;48.25;101501.34;5111847;28;20006;-60
2023/06/30 07:53:20;;;;;;;;;;;;;;;22.92;46.39;101509.94;5096226;28;19966;-60
2023/06/30 07:55:45;;;;;;;;;;;;;;;22.91;48.22;101497.72;5084345;28;20389;-59
2023/06/30 07:58:11;;;;;;;;;;;;;;;23.02;50.34;101495.81;5084445;28;20006;-60
2023/06/30 08:00:36;;;;;;;;;;;;;;;23.06;49.75;101501.91;5089291;28;20378;-59
2023/06/30 08:03:01;;;;;;;;;;;;;;;23.24;50.10;101506.91;5094428;28;19947;-59
2023/06/30 08:05:26;;;;;;;;;;;;;;;23.44;47.81;101500.50;5092741;28;20004;-61
2023/06/30 08:07:52;;;;;;;;;;;;;;;23.38;43.21;101509.31;5077836;28;19932;-59
2023/06/30 08:10:17;;;;;;;;;;;;;;;23.24;47.80;101508.66;5097607;28;19916;-60
2023/06/30 08:12:43;;;;;;;;;;;;;;;23.12;48.27;101499.22;5098195;28;19923;-60
2023/06/30 08:15:08;;;;;;;;;;;;;;;23.12;48.49;101503.59;5082757;28;20014;-60
2023/06/30 08:17:34;;;;;;;;;;;;;;;23.18;46.84;101495.63;5088776;28;19916;-58
2023/06/30 08:19:59;;;;;;;;;;;;;;;23.27;49.03;101498.13;5103729;28;19923;-60
2023/06/30 08:22:24;;;;;;;;;;;;;;;23.24;48.35;101498.16;5080294;28;20302;-61
2023/06/30 08:24:49;;;;;;;;;;;;;;;23.28;46.33;101491.97;5078046;28;19920;-60
2023/06/30 08:27:16;;;;;;;;;;;;;;;23.34;46.63;101501.50;5068453;28;19971;-60
2023/06/30 08:29:41;;;;;;;;;;;;;;;23.43;46.03;101501.38;5104065;28;20427;-60
2023/06/30 08:32:07;;;;;;;;;;;;;;;23.52;48.13;101494.22;5101652;28;20381;-59
2023/06/30 08:34:32;;;;;;;;;;;;;;;23.40;47.88;101485.66;5099394;28;19938;-58
2023/06/30 08:36:57;;;;;;;;;;;;;;;23.25;47.98;101489.41;5093417;28;20015;-59
2023/06/30 08:39:23;;;;;;;;;;;;;;;23.41;44.48;101487.41;5110452;28;19919;-58
2023/06/30 08:41:50;;;;;;;;;;;;;;;23.09;44.50;101483.50;5108375;28;19916;-60
2023/06/30 08:44:15;;;;;;;;;;;;;;;22.71;45.33;101486.59;5109615;28;20277;-60
2023/06/30 08:46:41;;;;;;;;;;;;;;;22.57;45.91;101480.63;5091550;28;19931;-58
2023/06/30 08:49:07;;;;;;;;;;;;;;;22.52;47.40;101487.69;5085495;28;20026;-59
2023/06/30 08:51:33;;;;;;;;;;;;;;;22.39;45.70;101477.34;5091074;28;19923;-47
2023/06/30 08:53:59;;;;;;;;;;;;;;;22.35;45.67;101475.66;5090581;28;19928;-46
2023/06/30 08:56:25;;;;;;;;;;;;;;;22.19;44.67;101472.31;5092069;28;19966;-46
2023/06/30 08:58:51;;;;;;;;;;;;;;;22.12;46.66;101475.88;5082015;28;19912;-46
2023/06/30 09:01:16;;;;;;;;;;;;;;;22.19;47.76;101472.31;5089635;28;19919;-47
2023/06/30 09:03:42;;;;;;;;;;;;;;;22.28;47.71;101468.75;5103675;28;20076;-49
2023/06/30 09:06:09;;;;;;;;;;;;;;;22.46;45.20;101476.41;5084481;28;19916;-50
2023/06/30 09:08:54;;;;;;;;;;;;;;;22.45;46.53;101466.81;5089659;28;19978;-49
2023/06/30 09:11:22;;;;;;;;;;;;;;;22.46;44.74;101463.28;5094811;28;19911;-48
2023/06/30 09:13:47;;;;;;;;;;;;;;;22.57;44.84;101465.81;5099776;28;19965;-59
2023/06/30 09:16:17;;;;;;;;;;;;;;;22.59;47.65;101463.16;5103404;28;20357;-59
2023/06/30 09:18:43;;;;;;;;;;;;;;;22.81;47.67;101459.34;5092806;28;19916;-59
2023/06/30 09:21:10;;;;;;;;;;;;;;;23.02;46.70;101458.25;5101488;28;19977;-59
2023/06/30 09:23:35;;;;;;;;;;;;;;;23.14;45.75;101450.19;5098992;28;19990;-58
2023/06/30 09:26:01;;;;;;;;;;;;;;;23.07;45.99;101458.19;5101249;28;19916;-59
2023/06/30 09:28:33;;;;;;;;;;;;;;;22.95;44.02;101462.72;5097462;28;19975;-59
2023/06/30 09:30:58;;;;;;;;;;;;;;;22.83;44.36;101462.84;5101176;28;19998;-60
2023/06/30 09:33:25;;;;;;;;;;;;;;;22.85;44.85;101455.81;5098634;28;20004;-58
2023/06/30 09:35:51;;;;;;;;;;;;;;;22.84;43.58;101458.47;5115267;27;19920;-60
2023/06/30 09:38:17;;;;;;;;;;;;;;;22.77;44.99;101454.19;5102802;27;20372;-59
2023/06/30 09:40:43;;;;;;;;;;;;;;;22.80;46.81;101444.50;5099380;28;19935;-59
2023/06/30 09:43:14;;;;;;;;;;;;;;;22.82;44.96;101455.88;5095330;28;20006;-58
2023/06/30 09:45:42;;;;;;;;;;;;;;;23.01;44.03;101456.50;5111126;27;19912;-59
2023/06/30 09:48:10;;;;;;;;;;;;;;;23.19;46.04;101451.00;5090161;28;19927;-60
2023/06/30 09:50:35;;;;;;;;;;;;;;;23.24;45.57;101453.56;5109704;27;19912;-58
2023/06/30 09:53:01;;;;;;;;;;;;;;;23.11;45.82;101452.00;5102560;28;19983;-58
2023/06/30 09:55:26;;;;;;;;;;;;;;;23.01;45.94;101452.13;5109759;28;19955;-57
2023/06/30 09:57:57;;;;;;;;;;;;;;;22.91;44.82;101453.13;5086916;28;19920;-58
2023/06/30 10:00:25;;;;;;;;;;;;;;;22.98;46.05;101446.91;5109103;27;19912;-57
2023/06/30 10:03:18;;;;;;;;;;;;;;;23.07;44.40;101451.19;5083594;28;19916;-46
2023/06/30 10:05:44;;;;;;;;;;;;;;;23.35;46.23;101449.00;5103015;28;19912;-46
2023/06/30 10:08:10;;;;;;;;;;;;;;;23.32;45.34;101443.81;5099051;28;19978;-46
2023/06/30 10:10:35;;;;;;;;;;;;;;;23.14;45.67;101438.84;5102241;27;19915;-51
2023/06/30 10:13:01;;;;;;;;;;;;;;;23.28;45.57;101436.88;5086133;28;20381;-46
2023/06/30 10:15:26;;;;;;;;;;;;;;;23.48;43.12;101442.69;5098056;28;19920;-49
2023/06/30 10:17:54;;;;;;;;;;;;;;;23.54;43.49;101442.59;5119118;27;19915;-47
2023/06/30 10:20:19;;;;;;;;;;;;;;;23.35;42.83;101443.75;5104377;28;19923;-47
2023/06/30 10:22:45;;;;;;;;;;;;;;;23.14;41.60;101431.84;5100712;28;19935;-48
2023/06/30 10:25:11;;;;;;;;;;;;;;;23.11;44.52;101434.50;5087811;28;20326;-50
2023/06/30 10:27:38;;;;;;;;;;;;;;;23.23;43.12;101430.81;5111825;27;19930;-49
2023/06/30 10:30:03;;;;;;;;;;;;;;;23.35;42.04;101425.38;5109939;27;19957;-50
2023/06/30 10:32:29;;;;;;;;;;;;;;;23.44;44.27;101430.50;5104221;28;20319;-50
2023/06/30 10:34:54;;;;;;;;;;;;;;;23.55;42.74;101423.31;5105364;28;19920;-50
2023/06/30 10:37:20;;;;;;;;;;;;;;;23.40;42.08;101426.19;5108348;27;20419;-50
2023/06/30 10:39:46;;;;;;;;;;;;;;;23.29;41.59;101422.84;5110367;27;19920;-46
2023/06/30 10:42:12;;;;;;;;;;;;;;;23.17;42.85;101415.16;5102027;28;20010;-49
2023/06/30 10:44:38;;;;;;;;;;;;;;;23.12;40.95;101415.25;5120059;27;20006;-46
2023/06/30 10:47:04;;;;;;;;;;;;;;;23.17;42.60;101417.78;5116962;27;19915;-46
2023/06/30 10:49:30;;;;;;;;;;;;;;;23.28;42.46;101408.00;5100673;28;20010;-49
2023/06/30 10:51:56;;;;;;;;;;;;;;;23.60;42.75;101403.97;5098690;28;19927;-47
2023/06/30 10:54:21;;;;;;;;;;;;;;;23.62;40.90;101403.09;5118688;28;20282;-46
2023/06/30 10:56:47;;;;;;;;;;;;;;;23.46;42.40;101406.84;5104539;28;19920;-48
2023/06/30 10:59:17;;;;;;;;;;;;;;;23.65;42.79;101407.41;5113324;28;19919;-47
2023/06/30 11:02:02;;;;;;;;;;;;;;;23.91;41.74;101401.72;5114978;28;20006;-49
2023/06/30 11:04:35;;;;;;;;;;;;;;;24.04;41.18;101401.47;5099085;28;19915;-48
2023/06/30 11:07:04;;;;;;;;;;;;;;;24.16;42.29;101384.59;5115798;28;19924;-51
2023/06/30 11:10:04;;;;;;;;;;;;;;;24.39;41.98;101386.78;5097933;28;19912;-47
2023/06/30 11:12:50;;;;;;;;;;;;;;;24.35;41.32;101385.13;5026726;28;19917;-48
2023/06/30 11:15:28;;;;;;;;;;;;;;;24.17;41.89;101391.56;5098238;28;19919;-48
2023/06/30 11:17:54;;;;;;;;;;;;;;;24.23;40.17;101390.59;5106877;28;20443;-48
2023/06/30 11:20:23;;;;;;;;;;;;;;;24.22;39.79;101388.84;5105050;28;19912;-49
2023/06/30 11:23:04;;;;;;;;;;;;;;;24.19;41.08;101384.50;5106858;28;19956;-49
2023/06/30 11:25:30;;;;;;;;;;;;;;;24.17;39.63;101388.06;5112383;28;19961;-49
2023/06/30 11:27:56;;;;;;;;;;;;;;;24.26;41.53;101385.25;5092844;28;19924;-48
2023/06/30 11:30:22;;;;;;;;;;;;;;;24.31;40.17;101386.88;5112787;28;20332;-47
2023/06/30 11:32:47;;;;;;;;;;;;;;;24.25;41.72;101386.16;5112774;28;19915;-49
2023/06/30 11:35:13;;;;;;;;;;;;;;;24.01;40.96;101380.47;5116175;28;19922;-50
2023/06/30 11:37:38;;;;;;;;;;;;;;;23.83;41.31;101385.22;5123667;28;19935;-50
2023/06/30 11:40:07;;;;;;;;;;;;;;;23.81;41.59;101372.13;5123965;28;19922;-49
2023/06/30 11:42:35;;;;;;;;;;;;;;;23.89;42.16;101370.22;5126918;28;20382;-49
2023/06/30 11:45:00;;;;;;;;;;;;;;;23.83;41.17;101369.47;5114228;28;20073;-51
2023/06/30 11:47:26;;;;;;;;;;;;;;;23.98;42.54;101369.19;5112397;28;20401;-49
2023/06/30 11:49:51;;;;;;;;;;;;;;;24.24;40.25;101369.53;5088803;28;19920;-49
2023/06/30 11:52:17;;;;;;;;;;;;;;;24.31;40.59;101372.88;5113392;27;20378;-51
2023/06/30 11:54:42;;;;;;;;;;;;;;;24.28;41.04;101362.47;5113593;27;19927;-49
2023/06/30 11:57:08;;;;;;;;;;;;;;;24.18;41.33;101358.28;5123681;27;19920;-49
2023/06/30 11:59:33;;;;;;;;;;;;;;;24.18;41.36;101367.03;5128026;27;20370;-50
2023/06/30 12:02:02;;;;;;;;;;;;;;;24.24;41.71;101356.38;5121564;27;20009;-50
2023/06/30 12:04:30;;;;;;;;;;;;;;;24.36;40.78;101357.94;5126053;27;19927;-51
2023/06/30 12:06:55;;;;;;;;;;;;;;;24.53;39.88;101357.56;5123898;27;19973;-47
2023/06/30 12:09:22;;;;;;;;;;;;;;;24.53;41.35;101355.81;5122337;27;19915;-50
2023/06/30 12:11:48;;;;;;;;;;;;;;;24.69;40.00;101352.81;5125775;27;19951;-50
2023/06/30 12:14:15;;;;;;;;;;;;;;;24.81;40.34;101352.53;5120650;27;20024;-58
2023/06/30 12:16:51;;;;;;;;;;;;;;;24.57;41.08;101352.22;5112374;27;20425;-58
2023/06/30 12:19:16;;;;;;;;;;;;;;;24.36;40.77;101349.19;5119996;27;20007;-57
2023/06/30 12:21:54;;;;;;;;;;;;;;;24.36;40.92;101354.44;5120890;27;20019;-57
2023/06/30 12:24:20;;;;;;;;;;;;;;;24.29;40.20;101349.28;5106700;27;19994;-57
2023/06/30 12:26:45;;;;;;;;;;;;;;;24.11;41.37;101338.28;5098169;27;20015;-58
2023/06/30 12:29:10;;;;;;;;;;;;;;;24.22;41.99;101331.06;5081284;27;19925;-57